Time;durP1;ratioP1;P1;durP2;ratioP2;P2;SDS_P1;SDS_P2;PMS_P1;PMS_P2;Temp;Humidity;BMP_temperature;BMP_pressure;BME280_temperature;BME280_humidity;BME280_pressure;Samples;Min_cycle;Max_cycle;Signal;HPM_P1;HPM_P2
2023/06/08 00:00:39;;;;;;;0.70;0.60;;;;;;;21.87;46.87;101378.03;4996808;28;20065;-46
2023/06/08 00:03:06;;;;;;;1.40;0.60;;;;;;;21.73;47.03;101381.56;4996963;28;20101;-46
2023/06/08 00:05:43;;;;;;;0.90;0.60;;;;;;;21.76;47.79;101381.00;4997157;28;20501;-47
2023/06/08 00:08:11;;;;;;;1.95;0.70;;;;;;;21.72;47.79;101378.00;4997250;28;20077;-46
2023/06/08 00:10:37;;;;;;;3.10;0.90;;;;;;;21.43;47.73;101366.75;4996932;28;20475;-46
2023/06/08 00:13:04;;;;;;;1.85;0.80;;;;;;;21.44;47.56;101367.56;4996522;28;20030;-46
2023/06/08 00:15:32;;;;;;;1.02;0.70;;;;;;;21.42;47.59;101364.25;4996641;28;20121;-46
2023/06/08 00:18:00;;;;;;;2.83;0.65;;;;;;;21.54;48.01;101368.44;4996601;28;20041;-46
2023/06/08 00:20:26;;;;;;;1.27;0.70;;;;;;;21.49;47.82;101362.94;4996434;28;20105;-47
2023/06/08 00:22:53;;;;;;;1.02;0.60;;;;;;;21.63;47.52;101366.00;4996454;28;20026;-46
2023/06/08 00:25:19;;;;;;;1.00;0.70;;;;;;;21.94;48.10;101368.81;4996374;28;20084;-46
2023/06/08 00:27:45;;;;;;;0.98;0.63;;;;;;;22.08;46.22;101367.19;4996331;28;20023;-47
2023/06/08 00:30:13;;;;;;;1.65;0.63;;;;;;;22.17;46.82;101365.63;4995920;28;20121;-47
2023/06/08 00:32:40;;;;;;;0.80;0.60;;;;;;;22.30;47.08;101362.34;4995770;28;20026;-50
2023/06/08 00:35:07;;;;;;;1.00;0.60;;;;;;;22.36;46.61;101363.97;4996108;28;20023;-48
2023/06/08 00:37:35;;;;;;;1.58;0.50;;;;;;;22.39;46.00;101360.72;4995958;28;20027;-46
2023/06/08 00:40:04;;;;;;;0.93;0.63;;;;;;;22.39;46.02;101359.91;4996205;28;20403;-47
2023/06/08 00:42:31;;;;;;;1.88;0.80;;;;;;;22.37;46.04;101359.34;4996147;28;20076;-46
2023/06/08 00:44:57;;;;;;;1.35;0.82;;;;;;;22.37;46.21;101362.06;4996070;28;20082;-45
2023/06/08 00:47:25;;;;;;;0.70;0.60;;;;;;;22.08;45.82;101361.75;4995890;28;20022;-46
2023/06/08 00:49:51;;;;;;;1.20;0.52;;;;;;;22.25;46.72;101362.34;4995997;28;20463;-46
2023/06/08 00:52:21;;;;;;;0.70;0.50;;;;;;;22.21;45.82;101355.81;4996180;28;20031;-46
2023/06/08 00:54:48;;;;;;;1.13;0.60;;;;;;;22.30;46.48;101365.06;4996181;28;20034;-46
2023/06/08 00:57:18;;;;;;;1.52;0.73;;;;;;;22.10;45.95;101365.88;4995879;28;20038;-45
2023/06/08 00:59:49;;;;;;;3.13;0.68;;;;;;;21.96;46.52;101367.44;4995422;28;20041;-47
2023/06/08 01:02:17;;;;;;;0.90;0.80;;;;;;;21.96;47.07;101366.63;4996145;28;20026;-46
2023/06/08 01:04:44;;;;;;;1.35;0.65;;;;;;;21.76;47.27;101376.38;4995715;28;20058;-46
2023/06/08 01:07:14;;;;;;;1.75;0.85;;;;;;;21.57;46.49;101367.06;4995585;28;20027;-47
2023/06/08 01:09:50;;;;;;;2.55;0.80;;;;;;;21.49;47.72;101371.13;4995568;28;20080;-46
2023/06/08 01:12:23;;;;;;;1.88;0.90;;;;;;;21.18;48.51;101355.69;4995665;28;20030;-47
2023/06/08 01:15:01;;;;;;;2.58;0.95;;;;;;;21.26;48.60;101358.72;4995536;28;20022;-46
2023/06/08 01:17:40;;;;;;;2.15;1.15;;;;;;;21.36;48.22;101366.16;4995404;28;20026;-46
2023/06/08 01:20:42;;;;;;;0.70;0.70;;;;;;;21.35;47.97;101353.63;4995477;28;20030;-46
2023/06/08 01:23:34;;;;;;;1.17;0.70;;;;;;;21.45;48.54;101353.66;4988202;28;20495;-47
2023/06/08 01:26:02;;;;;;;1.10;0.90;;;;;;;21.38;48.35;101355.81;4995407;28;20023;-46
2023/06/08 01:28:31;;;;;;;1.67;1.08;;;;;;;21.16;47.99;101347.78;4995423;28;20426;-46
2023/06/08 01:30:58;;;;;;;1.95;0.77;;;;;;;21.03;48.39;101359.94;4995242;28;20023;-49
2023/06/08 01:33:28;;;;;;;1.63;0.90;;;;;;;21.12;48.88;101348.56;4995153;28;20030;-50
2023/06/08 01:36:17;;;;;;;1.25;0.60;;;;;;;21.16;48.42;101347.78;4995240;28;20130;-46
2023/06/08 01:39:00;;;;;;;1.17;0.70;;;;;;;20.95;49.18;101348.75;4994850;28;20442;-46
2023/06/08 01:41:36;;;;;;;1.95;0.95;;;;;;;20.81;49.54;101349.19;4995010;28;20024;-45
2023/06/08 01:44:05;;;;;;;0.68;0.60;;;;;;;20.83;49.22;101348.94;4995254;28;20038;-46
2023/06/08 01:46:32;;;;;;;1.27;0.80;;;;;;;20.96;49.84;101355.81;4995049;28;20022;-46
2023/06/08 01:49:01;;;;;;;1.20;0.80;;;;;;;20.98;48.29;101361.81;4994743;28;20026;-48
2023/06/08 01:51:29;;;;;;;2.42;0.95;;;;;;;21.04;48.70;101361.59;4994509;28;20505;-49
2023/06/08 01:54:08;;;;;;;1.05;0.57;;;;;;;20.78;49.32;101360.63;4994204;28;20026;-46
2023/06/08 01:56:35;;;;;;;3.67;0.82;;;;;;;21.17;48.68;101359.50;4994501;28;20030;-49
2023/06/08 01:59:03;;;;;;;2.88;0.75;;;;;;;21.05;47.77;101376.03;4994647;28;20026;-46
2023/06/08 02:01:29;;;;;;;1.40;0.80;;;;;;;20.95;48.73;101373.25;4994598;28;20030;-47
2023/06/08 02:03:55;;;;;;;1.65;0.63;;;;;;;21.44;48.06;101373.00;4995044;28;20026;-46
2023/06/08 02:06:21;;;;;;;1.10;0.60;;;;;;;21.63;47.81;101376.88;4994568;28;20019;-47
2023/06/08 02:08:48;;;;;;;1.40;0.60;;;;;;;21.52;47.03;101383.38;4994388;28;20022;-46
2023/06/08 02:11:14;;;;;;;0.88;0.77;;;;;;;21.77;46.27;101391.66;4993759;28;20105;-46
2023/06/08 02:13:42;;;;;;;2.15;0.82;;;;;;;21.85;46.33;101391.13;4994328;28;20054;-46
2023/06/08 02:16:09;;;;;;;0.95;0.63;;;;;;;22.03;45.91;101397.97;4994214;28;20398;-46
2023/06/08 02:18:39;;;;;;;1.90;0.90;;;;;;;22.14;45.80;101399.69;4994083;28;20034;-48
2023/06/08 02:21:05;;;;;;;0.82;0.60;;;;;;;22.29;45.52;101401.63;4994185;28;20026;-48
2023/06/08 02:23:31;;;;;;;1.33;0.65;;;;;;;22.26;45.09;101407.59;4994081;28;20537;-47
2023/06/08 02:25:58;;;;;;;1.42;0.70;;;;;;;22.33;45.04;101402.72;4994239;28;20064;-49
2023/06/08 02:28:24;;;;;;;1.20;0.50;;;;;;;22.42;44.62;101400.25;4993919;28;20105;-47
2023/06/08 02:30:50;;;;;;;0.77;0.63;;;;;;;22.25;44.57;101408.69;4994132;28;20026;-48
2023/06/08 02:33:17;;;;;;;0.60;0.50;;;;;;;22.24;44.83;101407.06;4994490;28;20053;-51
2023/06/08 02:35:43;;;;;;;1.23;0.63;;;;;;;22.13;45.05;101408.13;4994174;28;20030;-49
2023/06/08 02:38:09;;;;;;;1.90;0.60;;;;;;;21.73;45.51;101395.19;4993792;28;20129;-49
2023/06/08 02:40:35;;;;;;;1.52;0.80;;;;;;;21.72;45.54;101405.25;4994408;28;20030;-50
2023/06/08 02:43:02;;;;;;;1.27;0.90;;;;;;;21.60;46.33;101404.69;4993896;28;20510;-48
2023/06/08 02:45:28;;;;;;;1.73;0.90;;;;;;;21.37;46.68;101396.91;4994108;28;20026;-47
2023/06/08 02:47:54;;;;;;;0.82;0.50;;;;;;;21.24;47.21;101395.47;4993948;28;20466;-49
2023/06/08 02:50:22;;;;;;;2.00;1.05;;;;;;;21.25;47.14;101397.91;4993707;28;20031;-50
2023/06/08 02:52:49;;;;;;;1.42;0.77;;;;;;;21.00;47.38;101398.59;4993788;28;20104;-49
2023/06/08 02:55:16;;;;;;;1.23;0.50;;;;;;;20.81;48.36;101398.16;4993616;28;20026;-49
2023/06/08 02:57:42;;;;;;;1.98;0.63;;;;;;;20.49;49.24;101403.63;4993609;28;20057;-48
2023/06/08 03:00:12;;;;;;;1.05;0.60;;;;;;;20.12;49.82;101406.22;4993697;28;20129;-47
2023/06/08 03:02:38;;;;;;;1.02;0.77;;;;;;;19.54;51.53;101399.53;4993958;28;20026;-51
2023/06/08 03:05:05;;;;;;;3.33;1.17;;;;;;;19.48;52.17;101403.25;4993791;28;20079;-47
2023/06/08 03:07:36;;;;;;;1.48;0.70;;;;;;;19.45;52.39;101401.88;4993740;28;20372;-49
2023/06/08 03:10:06;;;;;;;1.80;0.65;;;;;;;19.15;52.63;101398.72;4993868;28;20046;-47
2023/06/08 03:12:32;;;;;;;1.45;0.70;;;;;;;18.94;53.63;101409.28;5008718;28;20542;-48
2023/06/08 03:14:59;;;;;;;0.63;0.55;;;;;;;18.83;53.99;101414.81;4993601;28;20042;-48
2023/06/08 03:17:27;;;;;;;0.95;0.77;;;;;;;18.38;55.82;101418.34;4993507;28;20113;-48
2023/06/08 03:19:54;;;;;;;1.58;0.60;;;;;;;18.35;56.12;101413.41;4993720;28;20493;-46
2023/06/08 03:22:20;;;;;;;0.90;0.57;;;;;;;18.07;56.86;101415.06;4996647;28;20423;-49
2023/06/08 03:24:50;;;;;;;1.48;0.63;;;;;;;18.18;56.36;101402.53;4997647;28;20032;-47
2023/06/08 03:27:16;;;;;;;1.70;0.70;;;;;;;18.14;56.48;101407.59;4997485;28;20033;-51
2023/06/08 03:29:43;;;;;;;2.63;0.65;;;;;;;18.03;57.06;101416.59;4997402;28;20041;-47
2023/06/08 03:32:09;;;;;;;1.65;0.70;;;;;;;17.88;57.46;101413.63;4997406;28;20121;-47
2023/06/08 03:34:37;;;;;;;0.60;0.57;;;;;;;17.68;58.43;101420.22;4997313;28;20030;-49
2023/06/08 03:37:03;;;;;;;1.35;0.57;;;;;;;17.64;58.82;101416.34;4997265;28;20129;-47
2023/06/08 03:39:29;;;;;;;1.02;0.50;;;;;;;17.72;58.60;101419.75;4997371;28;20065;-48
2023/06/08 03:41:56;;;;;;;1.35;0.88;;;;;;;17.42;59.55;101421.56;4997198;28;20023;-47
2023/06/08 03:44:22;;;;;;;1.95;0.60;;;;;;;17.51;59.38;101418.50;4997499;28;20395;-46
2023/06/08 03:46:49;;;;;;;1.60;0.70;;;;;;;17.47;59.82;101422.72;4997155;28;20138;-50
2023/06/08 03:49:15;;;;;;;2.28;1.08;;;;;;;17.40;60.23;101420.97;4997037;28;20113;-48
2023/06/08 03:51:41;;;;;;;2.58;1.02;;;;;;;17.39;60.23;101407.69;4997009;28;20080;-47
2023/06/08 03:54:08;;;;;;;3.50;1.00;;;;;;;17.18;61.00;101408.28;4996959;28;20080;-50
2023/06/08 03:56:34;;;;;;;2.55;0.77;;;;;;;17.22;60.57;101415.69;4997020;28;20037;-50
2023/06/08 03:59:01;;;;;;;1.42;0.73;;;;;;;16.93;61.71;101412.03;4996609;28;20041;-50
2023/06/08 04:01:28;;;;;;;2.30;0.77;;;;;;;16.99;61.32;101410.28;4996794;28;20391;-49
2023/06/08 04:03:54;;;;;;;1.48;1.00;;;;;;;16.98;61.83;101409.44;4996800;28;20023;-47
2023/06/08 04:06:23;;;;;;;0.82;0.73;;;;;;;17.09;61.37;101414.03;4996553;28;20416;-50
2023/06/08 04:08:50;;;;;;;1.38;0.75;;;;;;;16.89;61.79;101417.09;4996722;28;20420;-46
2023/06/08 04:11:16;;;;;;;1.80;0.90;;;;;;;16.98;61.83;101411.34;4996152;28;20026;-49
2023/06/08 04:13:42;;;;;;;0.90;0.50;;;;;;;17.04;61.72;101413.91;4996519;28;20087;-50
2023/06/08 04:16:10;;;;;;;2.83;0.93;;;;;;;16.85;62.29;101417.81;4996604;28;20018;-50
2023/06/08 04:18:37;;;;;;;1.02;0.57;;;;;;;16.99;61.69;101419.22;4996552;28;20027;-49
2023/06/08 04:21:05;;;;;;;1.13;0.75;;;;;;;17.00;61.64;101418.16;4996506;28;20449;-51
2023/06/08 04:23:36;;;;;;;1.10;0.60;;;;;;;16.89;61.96;101424.41;4996895;28;20489;-49
2023/06/08 04:26:03;;;;;;;1.20;0.70;;;;;;;16.92;62.04;101428.50;4996339;28;20046;-48
2023/06/08 04:28:30;;;;;;;0.75;0.70;;;;;;;16.77;62.74;101431.66;4996298;28;20077;-48
2023/06/08 04:30:59;;;;;;;0.93;0.63;;;;;;;16.72;62.61;101423.44;4996618;28;20356;-48
2023/06/08 04:33:27;;;;;;;0.85;0.65;;;;;;;16.70;62.70;101433.59;4995580;28;20026;-49
2023/06/08 04:35:53;;;;;;;1.30;0.93;;;;;;;16.67;62.67;101439.50;4996430;28;20076;-49
2023/06/08 04:38:20;;;;;;;0.80;0.55;;;;;;;16.52;63.27;101443.44;4996358;28;20057;-48
2023/06/08 04:40:53;;;;;;;1.33;0.70;;;;;;;16.44;63.74;101443.78;4996151;28;20109;-51
2023/06/08 04:43:29;;;;;;;1.00;0.60;;;;;;;16.46;63.34;101449.75;4996049;28;20031;-50
2023/06/08 04:45:59;;;;;;;2.25;0.70;;;;;;;16.40;63.74;101444.47;4996112;28;20479;-48
2023/06/08 04:48:28;;;;;;;1.23;0.63;;;;;;;16.36;63.99;101450.31;4996891;28;20031;-48
2023/06/08 04:51:04;;;;;;;0.88;0.60;;;;;;;16.37;63.84;101470.88;4996236;28;20027;-49
2023/06/08 04:53:35;;;;;;;2.00;0.70;;;;;;;16.43;63.50;101468.31;4995905;28;20028;-49
2023/06/08 04:56:02;;;;;;;0.65;0.60;;;;;;;16.24;64.33;101471.06;4995965;28;20057;-48
2023/06/08 04:58:29;;;;;;;1.67;0.68;;;;;;;16.30;64.36;101477.41;4995855;28;20054;-50
2023/06/08 05:00:56;;;;;;;1.45;0.70;;;;;;;16.37;64.17;101483.56;4996411;28;20041;-48
2023/06/08 05:03:25;;;;;;;4.93;0.80;;;;;;;16.36;64.01;101490.00;4995548;28;20026;-50
2023/06/08 05:05:51;;;;;;;1.77;0.60;;;;;;;16.29;64.30;101489.28;4996147;28;20029;-51
2023/06/08 05:08:18;;;;;;;1.40;0.60;;;;;;;16.34;63.86;101489.44;4995939;28;20031;-49
2023/06/08 05:10:44;;;;;;;2.13;0.88;;;;;;;16.25;64.29;101482.69;4995710;28;20402;-50
2023/06/08 05:13:10;;;;;;;1.88;0.80;;;;;;;16.32;64.26;101480.72;4995971;28;20026;-51
2023/06/08 05:15:37;;;;;;;1.83;0.90;;;;;;;16.22;64.42;101483.16;4995414;28;20478;-49
2023/06/08 05:18:06;;;;;;;1.10;0.55;;;;;;;16.19;64.19;101486.28;4995286;28;20491;-49
2023/06/08 05:20:32;;;;;;;1.30;0.70;;;;;;;16.27;64.11;101491.41;4995469;28;20026;-50
2023/06/08 05:22:59;;;;;;;1.80;0.77;;;;;;;16.35;63.47;101497.28;4995273;28;20341;-50
2023/06/08 05:25:26;;;;;;;0.98;0.60;;;;;;;16.30;63.92;101493.63;4995519;28;20089;-50
2023/06/08 05:27:52;;;;;;;0.88;0.60;;;;;;;16.37;63.81;101499.75;4995317;28;20112;-50
2023/06/08 05:30:18;;;;;;;1.83;0.80;;;;;;;16.17;64.42;101496.50;4995297;28;20030;-50
2023/06/08 05:32:45;;;;;;;0.85;0.65;;;;;;;16.15;64.28;101501.31;4995582;28;20026;-49
2023/06/08 05:35:11;;;;;;;1.02;0.60;;;;;;;16.26;64.63;101514.88;4995404;28;20371;-47
2023/06/08 05:37:37;;;;;;;1.08;0.80;;;;;;;16.26;64.47;101522.16;4994868;28;20446;-49
2023/06/08 05:40:04;;;;;;;3.25;0.77;;;;;;;16.15;64.92;101522.91;4994977;28;20041;-49
2023/06/08 05:42:30;;;;;;;1.10;0.70;;;;;;;16.15;65.27;101525.59;4995055;28;20030;-48
2023/06/08 05:44:57;;;;;;;1.23;0.80;;;;;;;16.20;65.28;101515.78;4993999;28;20027;-50
2023/06/08 05:47:23;;;;;;;1.25;0.90;;;;;;;16.32;65.42;101515.84;4995616;28;20033;-50
2023/06/08 05:49:49;;;;;;;2.28;0.80;;;;;;;16.45;65.13;101515.66;4994804;28;20430;-48
2023/06/08 05:52:15;;;;;;;1.17;0.70;;;;;;;16.27;65.64;101516.53;4995126;28;20491;-50
2023/06/08 05:54:41;;;;;;;1.52;1.05;;;;;;;16.27;66.00;101513.00;4994942;28;20026;-50
2023/06/08 05:57:08;;;;;;;2.00;0.82;;;;;;;16.28;65.83;101507.38;4994774;28;20088;-47
2023/06/08 05:59:34;;;;;;;0.80;0.60;;;;;;;16.28;65.97;101501.97;4994791;28;20483;-49
2023/06/08 06:02:00;;;;;;;3.03;0.77;;;;;;;16.32;65.59;101505.03;4994738;28;20121;-47
2023/06/08 06:04:26;;;;;;;2.25;0.80;;;;;;;16.31;65.55;101512.31;4994530;28;20611;-49
2023/06/08 06:06:53;;;;;;;1.67;0.70;;;;;;;16.28;65.81;101512.78;4994597;28;20035;-50
2023/06/08 06:09:19;;;;;;;1.02;0.70;;;;;;;16.21;66.51;101516.59;4994672;28;20415;-50
2023/06/08 06:11:47;;;;;;;1.15;0.75;;;;;;;16.29;65.63;101516.31;4994408;28;20494;-49
2023/06/08 06:14:13;;;;;;;1.10;0.75;;;;;;;16.32;65.62;101521.22;4994713;28;20506;-50
2023/06/08 06:16:41;;;;;;;1.50;0.65;;;;;;;16.47;65.10;101515.44;4994465;28;20403;-50
2023/06/08 06:19:07;;;;;;;1.40;0.60;;;;;;;16.29;65.48;101513.59;4994349;28;20042;-50
2023/06/08 06:21:33;;;;;;;0.98;0.80;;;;;;;16.33;65.47;101512.91;4994278;28;20034;-50
2023/06/08 06:24:00;;;;;;;1.38;0.68;;;;;;;16.30;65.64;101520.66;4994364;28;20026;-50
2023/06/08 06:26:26;;;;;;;0.93;0.60;;;;;;;16.24;65.63;101521.56;4994296;28;20072;-49
2023/06/08 06:28:52;;;;;;;1.35;0.90;;;;;;;16.25;65.74;101525.91;4994319;28;20030;-50
2023/06/08 06:31:18;;;;;;;1.27;0.70;;;;;;;16.20;66.17;101523.06;4994262;28;20037;-50
2023/06/08 06:33:44;;;;;;;1.17;0.80;;;;;;;16.17;66.32;101526.22;4994518;28;20054;-47
2023/06/08 06:36:11;;;;;;;3.78;1.00;;;;;;;16.15;66.27;101525.59;4993933;28;20030;-48
2023/06/08 06:38:37;;;;;;;2.83;0.80;;;;;;;16.12;66.28;101523.38;4994241;28;20112;-47
2023/06/08 06:41:03;;;;;;;0.68;0.60;;;;;;;16.12;66.07;101529.59;4994213;28;20359;-48
2023/06/08 06:43:30;;;;;;;1.48;0.75;;;;;;;16.05;66.50;101528.84;4994032;28;20063;-48
2023/06/08 06:45:56;;;;;;;1.27;0.90;;;;;;;16.01;66.40;101523.06;4994313;28;20432;-47
2023/06/08 06:48:23;;;;;;;1.52;0.88;;;;;;;16.00;66.83;101523.31;4994356;28;20037;-48
2023/06/08 06:50:49;;;;;;;1.25;0.85;;;;;;;16.06;66.60;101525.09;4993867;28;20076;-49
2023/06/08 06:53:16;;;;;;;1.67;0.82;;;;;;;16.03;66.46;101520.13;4993929;28;20038;-49
2023/06/08 06:55:42;;;;;;;2.30;0.70;;;;;;;16.02;66.40;101519.31;4993622;28;20085;-47
2023/06/08 06:58:09;;;;;;;1.20;0.75;;;;;;;16.00;66.56;101521.44;4993652;28;20026;-50
2023/06/08 07:00:39;;;;;;;1.63;1.10;;;;;;;15.63;68.31;101512.47;4993810;28;20128;-49
2023/06/08 07:03:06;;;;;;;1.58;0.90;;;;;;;15.99;67.17;101511.69;4993822;28;20073;-50
2023/06/08 07:05:36;;;;;;;1.55;0.85;;;;;;;15.78;67.51;101506.72;4993871;28;20049;-50
2023/06/08 07:08:03;;;;;;;1.13;0.77;;;;;;;15.67;68.06;101504.78;4994037;28;20054;-50
2023/06/08 07:10:29;;;;;;;1.52;0.98;;;;;;;15.80;67.66;101504.63;4993453;28;20150;-48
2023/06/08 07:12:56;;;;;;;1.13;0.73;;;;;;;15.71;67.83;101505.94;4993646;28;20023;-47
2023/06/08 07:15:23;;;;;;;2.72;1.00;;;;;;;15.60;68.35;101494.00;4993543;28;20077;-46
2023/06/08 07:17:50;;;;;;;1.77;1.00;;;;;;;15.54;68.73;101490.31;4993557;28;20035;-47
2023/06/08 07:20:16;;;;;;;2.20;1.00;;;;;;;15.62;68.97;101491.91;4994151;28;20149;-51
2023/06/08 07:22:42;;;;;;;1.13;0.80;;;;;;;15.64;69.76;101495.22;4993776;28;20154;-48
2023/06/08 07:25:09;;;;;;;2.53;1.10;;;;;;;15.58;70.46;101496.91;4993589;28;20049;-51
2023/06/08 07:27:35;;;;;;;1.85;0.80;;;;;;;15.68;70.00;101495.63;4993443;28;20054;-47
2023/06/08 07:30:02;;;;;;;2.10;0.90;;;;;;;15.56;70.65;101498.19;4993386;28;20057;-46
2023/06/08 07:32:30;;;;;;;2.58;0.90;;;;;;;15.58;70.32;101499.63;4993302;28;20044;-47
2023/06/08 07:34:56;;;;;;;2.20;1.05;;;;;;;15.57;70.23;101500.66;4993330;28;20023;-47
2023/06/08 07:37:22;;;;;;;2.67;1.20;;;;;;;15.52;70.62;101500.50;4993810;28;20034;-47
2023/06/08 07:39:48;;;;;;;2.10;1.10;;;;;;;15.44;70.67;101491.91;4993238;28;20547;-46
2023/06/08 07:42:15;;;;;;;2.30;1.23;;;;;;;15.52;70.35;101491.59;4993306;28;20042;-49
2023/06/08 07:44:41;;;;;;;2.70;1.20;;;;;;;15.52;69.74;101491.59;4993305;28;20130;-47
2023/06/08 07:47:07;;;;;;;2.38;1.30;;;;;;;15.43;70.01;101484.81;4993617;28;20101;-46
2023/06/08 07:49:33;;;;;;;2.10;1.27;;;;;;;15.49;69.94;101482.09;4993204;28;20057;-47
2023/06/08 07:52:00;;;;;;;1.88;0.95;;;;;;;15.51;69.65;101479.97;4993118;28;20105;-48
2023/06/08 07:54:26;;;;;;;1.98;1.08;;;;;;;15.44;69.85;101475.72;4993462;28;20538;-46
2023/06/08 07:56:52;;;;;;;0.82;0.70;;;;;;;15.58;69.18;101472.63;4993480;28;20022;-50
2023/06/08 07:59:19;;;;;;;1.40;0.77;;;;;;;15.53;68.79;101471.66;4993271;28;20105;-47
2023/06/08 08:01:45;;;;;;;1.77;0.90;;;;;;;15.53;68.49;101467.06;4993137;28;20022;-47
2023/06/08 08:04:11;;;;;;;1.67;0.90;;;;;;;15.43;68.83;101472.16;4993327;28;20117;-47
2023/06/08 08:06:38;;;;;;;2.47;0.80;;;;;;;15.31;69.40;101471.25;4992982;28;20369;-47
2023/06/08 08:09:04;;;;;;;1.67;0.88;;;;;;;15.21;69.86;101470.91;4995149;28;20034;-47
2023/06/08 08:11:30;;;;;;;3.35;1.02;;;;;;;15.37;69.79;101467.66;4996606;28;20037;-46
2023/06/08 08:13:56;;;;;;;1.55;1.00;;;;;;;15.35;69.49;101469.75;4996640;28;20026;-48
2023/06/08 08:16:23;;;;;;;2.45;0.98;;;;;;;15.36;70.19;101476.81;4997001;28;20121;-47
2023/06/08 08:18:49;;;;;;;1.90;0.70;;;;;;;15.22;70.89;101481.50;4996834;28;20140;-47
2023/06/08 08:21:15;;;;;;;1.98;0.70;;;;;;;15.39;70.21;101473.66;4996670;28;20029;-47
2023/06/08 08:23:41;;;;;;;1.73;0.70;;;;;;;15.35;70.37;101466.25;4997178;28;20109;-47
2023/06/08 08:26:08;;;;;;;1.13;0.80;;;;;;;15.25;70.79;101472.94;4996586;28;20054;-50
2023/06/08 08:28:38;;;;;;;1.45;0.85;;;;;;;15.23;71.30;101472.38;4996442;28;20026;-50
2023/06/08 08:31:04;;;;;;;1.88;0.80;;;;;;;15.24;71.19;101467.78;4996710;28;20027;-46
2023/06/08 08:33:30;;;;;;;1.13;0.80;;;;;;;15.19;71.38;101476.53;4996359;28;20038;-48
2023/06/08 08:35:57;;;;;;;1.42;0.60;;;;;;;15.35;70.90;101466.25;4996291;28;20026;-46
2023/06/08 08:38:23;;;;;;;1.90;0.90;;;;;;;15.27;70.78;101464.66;4996058;28;20093;-47
2023/06/08 08:40:52;;;;;;;2.47;0.90;;;;;;;15.30;70.38;101466.91;4996213;28;20479;-47
2023/06/08 08:43:22;;;;;;;1.25;0.80;;;;;;;15.28;70.92;101469.00;4996226;28;20091;-46
2023/06/08 08:45:51;;;;;;;1.75;0.98;;;;;;;15.25;70.77;101469.44;4996121;28;20030;-46
2023/06/08 08:48:22;;;;;;;1.92;0.80;;;;;;;15.17;70.93;101475.13;4996260;28;20113;-46
2023/06/08 08:50:57;;;;;;;1.10;0.70;;;;;;;15.23;71.24;101464.28;4996250;28;20467;-47
2023/06/08 08:53:30;;;;;;;4.13;1.30;;;;;;;15.15;71.70;101471.81;4996360;28;20109;-47
2023/06/08 08:55:59;;;;;;;2.10;0.90;;;;;;;15.17;70.99;101467.84;4996060;28;20479;-46
2023/06/08 08:58:26;;;;;;;1.77;0.68;;;;;;;15.13;71.29;101466.63;4995843;28;20018;-46
2023/06/08 09:00:53;;;;;;;1.25;0.77;;;;;;;15.10;71.52;101458.97;4996047;28;20041;-46
2023/06/08 09:03:19;;;;;;;2.30;0.77;;;;;;;15.15;71.11;101469.09;4995595;28;20561;-47
2023/06/08 09:05:50;;;;;;;0.70;0.70;;;;;;;15.14;71.45;101464.75;4995925;28;20109;-47
2023/06/08 09:08:16;;;;;;;1.40;1.08;;;;;;;15.06;71.55;101465.88;4995774;28;20129;-46
2023/06/08 09:10:42;;;;;;;1.33;0.82;;;;;;;15.19;71.41;101459.53;4995528;28;20039;-47
2023/06/08 09:13:20;;;;;;;1.30;0.90;;;;;;;15.10;71.56;101466.25;4995931;28;20038;-51
2023/06/08 09:15:47;;;;;;;2.35;0.85;;;;;;;15.12;71.51;101475.78;4995617;28;20049;-51
2023/06/08 09:18:17;;;;;;;2.75;0.85;;;;;;;15.11;71.34;101468.75;4995555;28;20026;-49
2023/06/08 09:20:45;;;;;;;2.38;1.00;;;;;;;15.36;71.00;101470.59;4995277;28;20037;-48
2023/06/08 09:23:26;;;;;;;2.05;0.90;;;;;;;15.12;71.46;101469.56;4995301;28;20034;-50
2023/06/08 09:25:53;;;;;;;5.00;0.85;;;;;;;15.15;71.01;101469.09;4995394;28;20471;-49
2023/06/08 09:28:28;;;;;;;1.15;0.90;;;;;;;15.12;71.38;101456.09;4995443;28;20028;-50
2023/06/08 09:31:00;;;;;;;2.22;0.90;;;;;;;15.18;71.60;101455.19;4995309;28;20128;-48
2023/06/08 09:33:32;;;;;;;2.78;1.23;;;;;;;14.98;72.31;101461.56;4995143;28;20031;-47
2023/06/08 09:35:58;;;;;;;1.88;0.90;;;;;;;14.94;72.92;101464.94;4995146;28;20022;-51
2023/06/08 09:38:29;;;;;;;1.73;0.93;;;;;;;15.15;72.27;101458.31;4994790;28;20053;-49
2023/06/08 09:41:19;;;;;;;2.10;0.90;;;;;;;14.96;72.51;101454.75;4995143;28;20033;-50
2023/06/08 09:43:48;;;;;;;2.20;0.82;;;;;;;14.83;72.96;101455.69;4995188;28;20065;-50
2023/06/08 09:46:34;;;;;;;2.17;1.23;;;;;;;14.90;72.90;101447.56;4995069;28;20031;-50
2023/06/08 09:49:04;;;;;;;3.50;1.23;;;;;;;14.99;72.78;101454.31;4994938;28;20038;-49
2023/06/08 09:51:36;;;;;;;3.53;1.10;;;;;;;14.90;73.18;101453.78;4995584;28;20023;-47
2023/06/08 09:54:04;;;;;;;2.00;1.13;;;;;;;14.85;73.21;101447.38;4994879;28;20054;-50
2023/06/08 09:56:31;;;;;;;1.98;1.00;;;;;;;14.87;73.10;101442.59;4994819;28;20029;-50
2023/06/08 09:59:06;;;;;;;2.53;1.20;;;;;;;14.85;73.00;101445.50;4994559;28;20383;-48
2023/06/08 10:01:32;;;;;;;;;;;;;;;14.93;72.27;101442.53;4995419;28;20037;-51
2023/06/08 10:04:02;;;;;;;2.20;0.90;;;;;;;14.85;72.14;101442.81;4994627;28;19913;-50
2023/06/08 10:06:30;;;;;;;2.72;1.45;;;;;;;14.74;73.38;101440.84;4994611;28;20029;-50
2023/06/08 10:08:59;;;;;;;2.65;1.10;;;;;;;14.78;73.36;101434.78;4994505;28;20105;-50
2023/06/08 10:11:27;;;;;;;2.03;1.00;;;;;;;14.74;73.83;101441.66;4994662;28;20026;-49
2023/06/08 10:13:54;;;;;;;2.47;1.00;;;;;;;14.82;73.55;101437.84;4994301;28;20061;-47
2023/06/08 10:16:21;;;;;;;1.77;1.00;;;;;;;14.83;73.74;101439.53;4994462;28;20026;-47
2023/06/08 10:18:47;;;;;;;2.45;1.00;;;;;;;14.86;73.87;101444.47;4994343;28;20033;-47
2023/06/08 10:21:14;;;;;;;1.98;1.02;;;;;;;14.75;74.39;101439.78;4994577;28;20022;-47
2023/06/08 10:23:42;;;;;;;3.22;1.20;;;;;;;14.77;73.98;101435.84;4995091;28;20030;-50
2023/06/08 10:26:08;;;;;;;1.98;0.90;;;;;;;14.72;74.45;101440.25;4994369;28;20097;-50
2023/06/08 10:28:35;;;;;;;2.20;1.05;;;;;;;14.66;74.50;101438.41;4994217;28;20026;-48
2023/06/08 10:31:30;;;;;;;2.65;0.90;;;;;;;14.60;74.80;101441.97;4993588;28;20037;-49
2023/06/08 10:33:58;;;;;;;3.20;1.50;;;;;;;14.74;74.66;101443.53;4994222;28;20105;-50
2023/06/08 10:36:36;;;;;;;3.03;1.10;;;;;;;14.85;74.28;101442.81;4994182;28;20026;-49
2023/06/08 10:39:07;;;;;;;2.63;0.90;;;;;;;14.61;74.79;101447.16;4993932;28;20483;-50
2023/06/08 10:41:41;;;;;;;1.65;1.15;;;;;;;14.53;75.11;101445.53;4994009;28;20054;-47
2023/06/08 10:44:24;;;;;;;1.75;1.17;;;;;;;14.57;75.06;101434.31;4993961;28;20030;-50
2023/06/08 10:47:03;;;;;;;1.70;0.90;;;;;;;14.63;74.51;101433.44;4994042;28;20031;-48
2023/06/08 10:49:34;;;;;;;2.33;0.90;;;;;;;14.55;74.49;101439.09;4994425;28;20467;-47
2023/06/08 10:52:02;;;;;;;1.55;0.77;;;;;;;14.43;74.70;101428.16;4994276;28;20501;-48
2023/06/08 10:54:29;;;;;;;1.25;0.80;;;;;;;14.39;74.81;101426.97;4993831;28;20022;-49
2023/06/08 10:57:04;;;;;;;1.30;0.82;;;;;;;14.40;74.76;101432.13;4993744;28;20352;-49
2023/06/08 10:59:37;;;;;;;1.38;0.80;;;;;;;14.40;74.56;101434.81;4994217;28;20103;-47
2023/06/08 11:02:05;;;;;;;1.15;0.80;;;;;;;14.37;74.75;101435.22;4993597;28;20114;-50
2023/06/08 11:04:33;;;;;;;1.85;1.15;;;;;;;14.33;75.12;101427.84;4993615;28;20030;-50
2023/06/08 11:07:05;;;;;;;2.17;1.02;;;;;;;14.36;75.04;101427.38;4994115;28;20077;-47
2023/06/08 11:09:33;;;;;;;1.60;1.00;;;;;;;14.36;74.86;101422.81;4993496;28;20541;-50
2023/06/08 11:12:00;;;;;;;1.92;1.00;;;;;;;14.30;74.97;101418.31;4993494;28;20030;-47
2023/06/08 11:14:27;;;;;;;2.20;1.20;;;;;;;14.29;75.18;101419.34;4993538;28;20045;-48
2023/06/08 11:16:55;;;;;;;2.13;1.00;;;;;;;14.27;74.95;101416.06;4993589;28;20506;-47
2023/06/08 11:19:28;;;;;;;1.77;0.90;;;;;;;14.23;75.42;101412.97;4993506;28;20505;-50
2023/06/08 11:21:54;;;;;;;2.50;1.33;;;;;;;14.17;75.47;101421.09;4993596;28;20026;-47
2023/06/08 11:24:28;;;;;;;2.25;1.23;;;;;;;14.24;75.17;101427.25;4993559;28;20387;-50
2023/06/08 11:27:00;;;;;;;4.47;1.42;;;;;;;14.28;74.68;101428.47;4993707;28;20062;-47
2023/06/08 11:29:30;;;;;;;2.38;1.17;;;;;;;14.18;74.72;101425.41;4993323;28;20026;-48